sensor_id;sensor_type;location;lat;lon;timestamp;pressure;altitude;pressure_sealevel;temperature;humidity
34482;BME280;20720;48.886;9.388;2023-09-18T00:00:06;97774.94;;;26.08;88.00
34482;BME280;20720;48.886;9.388;2023-09-18T00:02:36;97776.84;;;26.08;87.86
34482;BME280;20720;48.886;9.388;2023-09-18T00:05:01;97776.06;;;26.07;88.04
34482;BME280;20720;48.886;9.388;2023-09-18T00:07:27;97760.75;;;26.42;85.42
34482;BME280;20720;48.886;9.388;2023-09-18T00:09:52;97768.97;;;26.28;86.70
34482;BME280;20720;48.886;9.388;2023-09-18T00:12:18;97771.00;;;26.14;87.67
34482;BME280;20720;48.886;9.388;2023-09-18T00:14:43;97774.47;;;26.06;87.52
34482;BME280;20720;48.886;9.388;2023-09-18T00:17:08;97775.78;;;26.17;86.44
34482;BME280;20720;48.886;9.388;2023-09-18T00:19:34;97778.03;;;26.32;85.90
34482;BME280;20720;48.886;9.388;2023-09-18T00:21:59;97780.69;;;26.24;86.34
34482;BME280;20720;48.886;9.388;2023-09-18T00:24:26;97767.91;;;25.98;87.17
34482;BME280;20720;48.886;9.388;2023-09-18T00:26:51;97765.16;;;26.21;86.77
34482;BME280;20720;48.886;9.388;2023-09-18T00:29:18;97766.59;;;25.87;88.93
34482;BME280;20720;48.886;9.388;2023-09-18T00:31:43;97759.81;;;25.51;91.42
34482;BME280;20720;48.886;9.388;2023-09-18T00:34:08;97759.34;;;25.57;92.34
34482;BME280;20720;48.886;9.388;2023-09-18T00:36:34;97756.13;;;25.47;92.99
34482;BME280;20720;48.886;9.388;2023-09-18T00:38:59;97745.53;;;25.81;90.18
34482;BME280;20720;48.886;9.388;2023-09-18T00:41:24;97736.06;;;25.53;91.63
34482;BME280;20720;48.886;9.388;2023-09-18T00:43:49;97736.00;;;25.75;91.19
34482;BME280;20720;48.886;9.388;2023-09-18T00:46:15;97731.91;;;25.86;90.10
34482;BME280;20720;48.886;9.388;2023-09-18T00:48:40;97733.38;;;25.53;92.69
34482;BME280;20720;48.886;9.388;2023-09-18T00:51:06;97727.44;;;25.73;90.89
34482;BME280;20720;48.886;9.388;2023-09-18T00:53:31;97724.94;;;25.46;93.64
34482;BME280;20720;48.886;9.388;2023-09-18T00:55:58;97733.63;;;25.82;91.29
34482;BME280;20720;48.886;9.388;2023-09-18T00:58:26;97725.75;;;25.24;95.59
34482;BME280;20720;48.886;9.388;2023-09-18T01:00:51;97723.47;;;26.18;88.67
34482;BME280;20720;48.886;9.388;2023-09-18T01:03:17;97733.97;;;26.28;87.89
34482;BME280;20720;48.886;9.388;2023-09-18T01:05:44;97729.84;;;25.83;91.89
34482;BME280;20720;48.886;9.388;2023-09-18T01:08:10;97725.84;;;25.72;92.91
34482;BME280;20720;48.886;9.388;2023-09-18T01:11:14;97722.41;;;25.18;98.88
34482;BME280;20720;48.886;9.388;2023-09-18T01:13:52;97716.88;;;25.24;98.38
34482;BME280;20720;48.886;9.388;2023-09-18T01:16:24;97713.00;;;25.60;94.22
34482;BME280;20720;48.886;9.388;2023-09-18T01:18:52;97700.03;;;25.62;94.24
34482;BME280;20720;48.886;9.388;2023-09-18T01:21:20;97704.44;;;25.67;93.22
34482;BME280;20720;48.886;9.388;2023-09-18T01:23:46;97703.41;;;25.85;92.42
34482;BME280;20720;48.886;9.388;2023-09-18T01:26:11;97707.97;;;25.76;92.49
34482;BME280;20720;48.886;9.388;2023-09-18T01:28:37;97698.97;;;25.41;95.25
34482;BME280;20720;48.886;9.388;2023-09-18T01:31:02;97698.63;;;25.82;92.47
34482;BME280;20720;48.886;9.388;2023-09-18T01:33:28;97689.13;;;25.76;90.79
34482;BME280;20720;48.886;9.388;2023-09-18T01:35:55;97699.06;;;26.06;90.19
34482;BME280;20720;48.886;9.388;2023-09-18T01:38:22;97690.94;;;25.50;93.74
34482;BME280;20720;48.886;9.388;2023-09-18T01:40:49;97704.59;;;25.62;92.79
34482;BME280;20720;48.886;9.388;2023-09-18T01:43:14;97712.03;;;26.04;89.77
34482;BME280;20720;48.886;9.388;2023-09-18T01:45:39;97716.44;;;26.00;90.13
34482;BME280;20720;48.886;9.388;2023-09-18T01:48:06;97721.53;;;26.10;89.21
34482;BME280;20720;48.886;9.388;2023-09-18T01:50:31;97716.38;;;26.39;87.52
34482;BME280;20720;48.886;9.388;2023-09-18T01:52:58;97720.03;;;26.60;85.72
34482;BME280;20720;48.886;9.388;2023-09-18T01:55:24;97715.75;;;26.93;84.11
34482;BME280;20720;48.886;9.388;2023-09-18T01:57:49;97721.31;;;26.88;84.19
34482;BME280;20720;48.886;9.388;2023-09-18T02:00:15;97739.03;;;26.55;86.04
34482;BME280;20720;48.886;9.388;2023-09-18T02:02:40;97774.47;;;26.06;88.85
34482;BME280;20720;48.886;9.388;2023-09-18T02:05:05;97836.22;;;24.02;100.00
34482;BME280;20720;48.886;9.388;2023-09-18T02:07:31;97788.16;;;24.00;100.00
34482;BME280;20720;48.886;9.388;2023-09-18T02:09:56;97776.97;;;24.97;100.00
34482;BME280;20720;48.886;9.388;2023-09-18T02:12:22;97767.38;;;24.82;100.00
34482;BME280;20720;48.886;9.388;2023-09-18T02:14:47;97763.84;;;25.17;100.00
34482;BME280;20720;48.886;9.388;2023-09-18T02:17:12;97756.59;;;25.79;95.80
34482;BME280;20720;48.886;9.388;2023-09-18T02:19:37;97754.91;;;25.92;91.47
34482;BME280;20720;48.886;9.388;2023-09-18T02:22:03;97764.44;;;25.98;91.14
34482;BME280;20720;48.886;9.388;2023-09-18T02:24:28;97753.94;;;25.88;99.44
34482;BME280;20720;48.886;9.388;2023-09-18T02:26:54;97735.66;;;25.68;100.00
34482;BME280;20720;48.886;9.388;2023-09-18T02:29:19;97646.66;;;24.28;100.00
34482;BME280;20720;48.886;9.388;2023-09-18T02:31:44;97634.28;;;23.91;100.00
34482;BME280;20720;48.886;9.388;2023-09-18T02:34:09;97637.00;;;23.78;100.00
34482;BME280;20720;48.886;9.388;2023-09-18T02:36:35;97632.22;;;23.75;100.00
34482;BME280;20720;48.886;9.388;2023-09-18T02:39:00;97626.56;;;23.76;100.00
34482;BME280;20720;48.886;9.388;2023-09-18T02:41:25;97644.91;;;23.83;100.00
34482;BME280;20720;48.886;9.388;2023-09-18T02:43:51;97622.09;;;23.17;100.00
34482;BME280;20720;48.886;9.388;2023-09-18T02:46:16;97602.28;;;23.81;100.00
34482;BME280;20720;48.886;9.388;2023-09-18T02:48:41;97617.75;;;24.11;100.00
34482;BME280;20720;48.886;9.388;2023-09-18T02:51:07;97614.75;;;23.64;100.00
34482;BME280;20720;48.886;9.388;2023-09-18T02:53:33;97599.47;;;23.23;100.00
34482;BME280;20720;48.886;9.388;2023-09-18T02:55:59;97611.81;;;23.87;100.00
34482;BME280;20720;48.886;9.388;2023-09-18T02:58:25;97633.53;;;23.50;100.00
34482;BME280;20720;48.886;9.388;2023-09-18T03:00:52;97630.97;;;23.31;100.00
34482;BME280;20720;48.886;9.388;2023-09-18T03:03:19;97668.50;;;23.86;100.00
34482;BME280;20720;48.886;9.388;2023-09-18T03:05:44;97670.50;;;23.67;100.00
34482;BME280;20720;48.886;9.388;2023-09-18T03:08:11;97678.84;;;23.79;100.00
34482;BME280;20720;48.886;9.388;2023-09-18T03:10:38;97668.41;;;23.64;100.00
34482;BME280;20720;48.886;9.388;2023-09-18T03:13:09;97662.44;;;23.40;100.00
34482;BME280;20720;48.886;9.388;2023-09-18T03:15:35;97651.81;;;23.34;100.00
34482;BME280;20720;48.886;9.388;2023-09-18T03:18:03;97657.25;;;23.43;100.00
34482;BME280;20720;48.886;9.388;2023-09-18T03:20:29;97658.38;;;22.96;100.00
34482;BME280;20720;48.886;9.388;2023-09-18T03:22:56;97660.94;;;23.33;100.00
34482;BME280;20720;48.886;9.388;2023-09-18T03:25:22;97661.75;;;23.34;100.00
34482;BME280;20720;48.886;9.388;2023-09-18T03:27:49;97660.38;;;23.64;100.00
34482;BME280;20720;48.886;9.388;2023-09-18T03:30:14;97644.53;;;23.21;100.00
34482;BME280;20720;48.886;9.388;2023-09-18T03:32:42;97643.81;;;23.02;100.00
34482;BME280;20720;48.886;9.388;2023-09-18T03:35:09;97650.41;;;23.23;100.00
34482;BME280;20720;48.886;9.388;2023-09-18T03:37:41;97656.56;;;23.24;100.00
34482;BME280;20720;48.886;9.388;2023-09-18T03:40:07;97652.75;;;23.11;100.00
34482;BME280;20720;48.886;9.388;2023-09-18T03:42:32;97628.03;;;21.81;100.00
34482;BME280;20720;48.886;9.388;2023-09-18T03:44:58;97617.09;;;22.33;100.00
34482;BME280;20720;48.886;9.388;2023-09-18T03:47:23;97618.72;;;22.15;100.00
34482;BME280;20720;48.886;9.388;2023-09-18T03:49:48;97638.81;;;22.82;100.00
34482;BME280;20720;48.886;9.388;2023-09-18T03:52:13;97645.91;;;23.19;100.00
34482;BME280;20720;48.886;9.388;2023-09-18T03:54:39;97652.78;;;23.25;100.00
34482;BME280;20720;48.886;9.388;2023-09-18T03:57:04;97675.06;;;23.39;100.00
34482;BME280;20720;48.886;9.388;2023-09-18T03:59:29;97699.34;;;22.83;100.00
34482;BME280;20720;48.886;9.388;2023-09-18T04:01:55;97705.81;;;22.26;100.00
34482;BME280;20720;48.886;9.388;2023-09-18T04:04:20;97719.19;;;22.45;100.00
34482;BME280;20720;48.886;9.388;2023-09-18T04:06:45;97723.63;;;21.94;100.00
34482;BME280;20720;48.886;9.388;2023-09-18T04:09:11;97733.59;;;22.30;100.00
34482;BME280;20720;48.886;9.388;2023-09-18T04:11:36;97751.53;;;22.30;100.00
34482;BME280;20720;48.886;9.388;2023-09-18T04:14:02;97765.28;;;22.98;100.00
34482;BME280;20720;48.886;9.388;2023-09-18T04:16:30;97765.81;;;22.81;100.00
34482;BME280;20720;48.886;9.388;2023-09-18T04:19:03;97750.75;;;22.85;100.00
34482;BME280;20720;48.886;9.388;2023-09-18T04:21:29;97739.44;;;23.39;100.00
34482;BME280;20720;48.886;9.388;2023-09-18T04:23:55;97743.09;;;23.57;100.00
34482;BME280;20720;48.886;9.388;2023-09-18T04:26:23;97750.78;;;23.63;100.00
34482;BME280;20720;48.886;9.388;2023-09-18T04:28:48;97768.84;;;23.44;100.00
34482;BME280;20720;48.886;9.388;2023-09-18T04:31:14;97770.16;;;23.74;100.00
34482;BME280;20720;48.886;9.388;2023-09-18T04:33:39;97761.88;;;23.57;100.00
34482;BME280;20720;48.886;9.388;2023-09-18T04:36:05;97743.84;;;22.98;100.00
34482;BME280;20720;48.886;9.388;2023-09-18T04:38:30;97723.59;;;22.55;100.00
34482;BME280;20720;48.886;9.388;2023-09-18T04:40:59;97740.22;;;23.40;100.00
34482;BME280;20720;48.886;9.388;2023-09-18T04:43:24;97718.50;;;23.22;100.00
34482;BME280;20720;48.886;9.388;2023-09-18T04:45:50;97717.97;;;23.53;100.00
34482;BME280;20720;48.886;9.388;2023-09-18T04:48:16;97676.09;;;22.79;100.00
34482;BME280;20720;48.886;9.388;2023-09-18T04:50:41;97665.56;;;23.28;100.00
34482;BME280;20720;48.886;9.388;2023-09-18T04:53:06;97630.91;;;23.04;100.00
34482;BME280;20720;48.886;9.388;2023-09-18T04:55:31;97629.38;;;23.30;100.00
34482;BME280;20720;48.886;9.388;2023-09-18T04:57:57;97628.75;;;23.33;100.00
34482;BME280;20720;48.886;9.388;2023-09-18T05:00:24;97621.63;;;23.56;100.00
34482;BME280;20720;48.886;9.388;2023-09-18T05:02:51;97615.56;;;23.37;100.00
34482;BME280;20720;48.886;9.388;2023-09-18T05:05:16;97624.31;;;23.43;100.00
34482;BME280;20720;48.886;9.388;2023-09-18T05:07:43;97640.81;;;23.04;100.00
34482;BME280;20720;48.886;9.388;2023-09-18T05:10:08;97655.38;;;23.30;100.00
34482;BME280;20720;48.886;9.388;2023-09-18T05:12:34;97655.56;;;23.88;100.00
34482;BME280;20720;48.886;9.388;2023-09-18T05:14:59;97660.31;;;23.91;100.00
34482;BME280;20720;48.886;9.388;2023-09-18T05:17:39;97667.69;;;23.72;100.00
34482;BME280;20720;48.886;9.388;2023-09-18T05:20:07;97676.63;;;23.94;100.00
34482;BME280;20720;48.886;9.388;2023-09-18T05:22:32;97677.28;;;23.18;100.00
34482;BME280;20720;48.886;9.388;2023-09-18T05:24:58;97670.88;;;23.60;100.00
34482;BME280;20720;48.886;9.388;2023-09-18T05:27:23;97665.91;;;23.81;100.00
34482;BME280;20720;48.886;9.388;2023-09-18T05:29:50;97660.94;;;23.61;100.00
34482;BME280;20720;48.886;9.388;2023-09-18T05:32:15;97656.16;;;23.85;100.00
34482;BME280;20720;48.886;9.388;2023-09-18T05:34:40;97654.25;;;23.85;100.00
34482;BME280;20720;48.886;9.388;2023-09-18T05:37:05;97665.88;;;23.26;100.00
34482;BME280;20720;48.886;9.388;2023-09-18T05:39:31;97665.31;;;23.29;100.00
34482;BME280;20720;48.886;9.388;2023-09-18T05:41:56;97691.63;;;22.63;100.00
34482;BME280;20720;48.886;9.388;2023-09-18T05:44:23;97703.72;;;23.25;100.00
34482;BME280;20720;48.886;9.388;2023-09-18T05:46:48;97694.22;;;23.87;100.00
34482;BME280;20720;48.886;9.388;2023-09-18T05:49:14;97686.16;;;24.00;100.00
34482;BME280;20720;48.886;9.388;2023-09-18T05:51:39;97679.72;;;23.88;100.00
34482;BME280;20720;48.886;9.388;2023-09-18T05:54:05;97697.41;;;24.16;100.00
34482;BME280;20720;48.886;9.388;2023-09-18T05:56:30;97703.22;;;24.32;100.00
34482;BME280;20720;48.886;9.388;2023-09-18T05:58:55;97705.94;;;24.18;100.00
34482;BME280;20720;48.886;9.388;2023-09-18T06:01:21;97701.47;;;24.13;100.00
34482;BME280;20720;48.886;9.388;2023-09-18T06:03:46;97696.00;;;24.18;100.00
34482;BME280;20720;48.886;9.388;2023-09-18T06:06:12;97695.31;;;24.13;100.00
34482;BME280;20720;48.886;9.388;2023-09-18T06:08:38;97702.47;;;23.50;100.00
34482;BME280;20720;48.886;9.388;2023-09-18T06:11:03;97711.22;;;23.55;100.00
34482;BME280;20720;48.886;9.388;2023-09-18T06:13:28;97696.41;;;24.48;100.00
34482;BME280;20720;48.886;9.388;2023-09-18T06:15:55;97700.25;;;24.33;100.00
34482;BME280;20720;48.886;9.388;2023-09-18T06:18:21;97699.84;;;24.75;100.00
34482;BME280;20720;48.886;9.388;2023-09-18T06:20:47;97697.34;;;24.65;100.00
34482;BME280;20720;48.886;9.388;2023-09-18T06:23:13;97687.09;;;24.89;100.00
34482;BME280;20720;48.886;9.388;2023-09-18T06:25:39;97678.72;;;24.91;100.00
34482;BME280;20720;48.886;9.388;2023-09-18T06:28:05;97693.22;;;24.46;100.00
34482;BME280;20720;48.886;9.388;2023-09-18T06:30:30;97693.38;;;24.63;100.00
34482;BME280;20720;48.886;9.388;2023-09-18T06:32:56;97693.31;;;23.51;100.00
34482;BME280;20720;48.886;9.388;2023-09-18T06:35:21;97682.59;;;24.41;100.00
34482;BME280;20720;48.886;9.388;2023-09-18T06:37:46;97695.75;;;24.28;100.00
34482;BME280;20720;48.886;9.388;2023-09-18T06:40:13;97702.22;;;24.63;100.00
34482;BME280;20720;48.886;9.388;2023-09-18T06:42:38;97710.88;;;24.74;100.00
34482;BME280;20720;48.886;9.388;2023-09-18T06:45:05;97720.03;;;24.95;100.00
34482;BME280;20720;48.886;9.388;2023-09-18T06:47:32;97722.78;;;25.03;100.00
34482;BME280;20720;48.886;9.388;2023-09-18T06:49:57;97725.78;;;24.80;100.00
34482;BME280;20720;48.886;9.388;2023-09-18T06:52:23;97730.84;;;25.34;100.00
34482;BME280;20720;48.886;9.388;2023-09-18T06:54:48;97733.13;;;24.88;100.00
34482;BME280;20720;48.886;9.388;2023-09-18T06:57:13;97744.53;;;24.71;100.00
34482;BME280;20720;48.886;9.388;2023-09-18T06:59:39;97746.50;;;25.01;100.00
34482;BME280;20720;48.886;9.388;2023-09-18T07:02:04;97741.91;;;24.31;100.00
34482;BME280;20720;48.886;9.388;2023-09-18T07:04:29;97736.06;;;23.74;100.00
34482;BME280;20720;48.886;9.388;2023-09-18T07:06:55;97726.31;;;24.19;100.00
34482;BME280;20720;48.886;9.388;2023-09-18T07:09:21;97739.47;;;24.56;100.00
34482;BME280;20720;48.886;9.388;2023-09-18T07:11:48;97741.72;;;24.76;100.00
34482;BME280;20720;48.886;9.388;2023-09-18T07:14:14;97730.69;;;25.00;100.00
34482;BME280;20720;48.886;9.388;2023-09-18T07:16:39;97737.91;;;25.22;100.00
34482;BME280;20720;48.886;9.388;2023-09-18T07:19:05;97754.28;;;25.56;100.00
34482;BME280;20720;48.886;9.388;2023-09-18T07:21:30;97753.34;;;25.07;100.00
34482;BME280;20720;48.886;9.388;2023-09-18T07:23:55;97749.28;;;25.41;100.00
34482;BME280;20720;48.886;9.388;2023-09-18T07:26:21;97751.63;;;25.64;100.00
34482;BME280;20720;48.886;9.388;2023-09-18T07:28:46;97757.94;;;25.60;100.00
34482;BME280;20720;48.886;9.388;2023-09-18T07:31:12;97755.91;;;24.90;100.00
34482;BME280;20720;48.886;9.388;2023-09-18T07:33:39;97753.50;;;24.53;100.00
34482;BME280;20720;48.886;9.388;2023-09-18T07:36:04;97747.75;;;24.46;100.00
34482;BME280;20720;48.886;9.388;2023-09-18T07:38:31;97752.94;;;26.06;100.00
34482;BME280;20720;48.886;9.388;2023-09-18T07:40:56;97752.63;;;26.16;100.00
34482;BME280;20720;48.886;9.388;2023-09-18T07:43:21;97757.06;;;26.21;100.00
34482;BME280;20720;48.886;9.388;2023-09-18T07:45:49;97774.28;;;24.97;100.00
34482;BME280;20720;48.886;9.388;2023-09-18T07:48:14;97784.22;;;24.74;100.00
34482;BME280;20720;48.886;9.388;2023-09-18T07:50:43;97795.94;;;25.14;100.00
34482;BME280;20720;48.886;9.388;2023-09-18T07:53:09;97805.59;;;24.79;100.00
34482;BME280;20720;48.886;9.388;2023-09-18T07:55:34;97820.16;;;24.78;100.00
34482;BME280;20720;48.886;9.388;2023-09-18T07:57:59;97825.91;;;25.43;100.00
34482;BME280;20720;48.886;9.388;2023-09-18T08:00:25;97818.94;;;26.34;100.00
34482;BME280;20720;48.886;9.388;2023-09-18T08:02:51;97818.28;;;26.37;100.00
34482;BME280;20720;48.886;9.388;2023-09-18T08:05:19;97816.19;;;25.95;100.00
34482;BME280;20720;48.886;9.388;2023-09-18T08:07:44;97821.72;;;26.21;100.00
34482;BME280;20720;48.886;9.388;2023-09-18T08:10:12;97820.56;;;25.74;100.00
34482;BME280;20720;48.886;9.388;2023-09-18T08:12:37;97814.13;;;26.23;100.00
34482;BME280;20720;48.886;9.388;2023-09-18T08:15:03;97816.56;;;26.02;100.00
34482;BME280;20720;48.886;9.388;2023-09-18T08:17:30;97810.47;;;25.88;100.00
34482;BME280;20720;48.886;9.388;2023-09-18T08:19:55;97818.38;;;26.97;100.00
34482;BME280;20720;48.886;9.388;2023-09-18T08:22:21;97824.13;;;26.31;100.00
34482;BME280;20720;48.886;9.388;2023-09-18T08:24:49;97830.09;;;26.11;100.00
34482;BME280;20720;48.886;9.388;2023-09-18T08:27:15;97835.09;;;26.34;100.00
34482;BME280;20720;48.886;9.388;2023-09-18T08:29:42;97838.28;;;25.31;100.00
34482;BME280;20720;48.886;9.388;2023-09-18T08:32:08;97849.59;;;25.19;100.00
34482;BME280;20720;48.886;9.388;2023-09-18T08:34:33;97854.38;;;25.66;100.00
34482;BME280;20720;48.886;9.388;2023-09-18T08:36:59;97861.97;;;25.42;100.00
34482;BME280;20720;48.886;9.388;2023-09-18T08:39:24;97870.38;;;25.41;100.00
34482;BME280;20720;48.886;9.388;2023-09-18T08:41:51;97878.19;;;24.79;100.00
34482;BME280;20720;48.886;9.388;2023-09-18T08:44:22;97883.00;;;25.04;100.00
34482;BME280;20720;48.886;9.388;2023-09-18T08:46:50;97879.03;;;25.38;100.00
34482;BME280;20720;48.886;9.388;2023-09-18T08:49:16;97884.06;;;24.81;100.00
34482;BME280;20720;48.886;9.388;2023-09-18T08:51:42;97884.38;;;24.53;100.00
34482;BME280;20720;48.886;9.388;2023-09-18T08:54:09;97888.03;;;24.57;100.00
34482;BME280;20720;48.886;9.388;2023-09-18T08:56:35;97882.38;;;23.85;100.00
34482;BME280;20720;48.886;9.388;2023-09-18T08:59:00;97893.00;;;24.22;100.00
34482;BME280;20720;48.886;9.388;2023-09-18T09:01:26;97903.88;;;24.31;100.00
34482;BME280;20720;48.886;9.388;2023-09-18T09:03:51;97903.75;;;24.09;100.00
34482;BME280;20720;48.886;9.388;2023-09-18T09:06:16;97900.09;;;24.73;100.00
34482;BME280;20720;48.886;9.388;2023-09-18T09:08:42;97887.94;;;24.48;100.00
34482;BME280;20720;48.886;9.388;2023-09-18T09:11:07;97893.91;;;23.86;100.00
34482;BME280;20720;48.886;9.388;2023-09-18T09:13:32;97895.19;;;23.75;100.00
34482;BME280;20720;48.886;9.388;2023-09-18T09:15:58;97902.88;;;23.95;100.00
34482;BME280;20720;48.886;9.388;2023-09-18T09:18:33;97907.28;;;23.03;100.00
34482;BME280;20720;48.886;9.388;2023-09-18T09:21:03;97909.25;;;22.74;100.00
34482;BME280;20720;48.886;9.388;2023-09-18T09:23:44;97907.31;;;22.56;100.00
34482;BME280;20720;48.886;9.388;2023-09-18T09:26:14;97910.72;;;22.37;100.00
34482;BME280;20720;48.886;9.388;2023-09-18T09:28:40;97891.41;;;21.93;100.00
34482;BME280;20720;48.886;9.388;2023-09-18T09:31:08;97882.34;;;22.13;100.00
34482;BME280;20720;48.886;9.388;2023-09-18T09:33:33;97859.44;;;22.49;100.00
34482;BME280;20720;48.886;9.388;2023-09-18T09:35:59;97855.66;;;23.11;100.00
34482;BME280;20720;48.886;9.388;2023-09-18T09:38:32;97864.66;;;23.39;100.00
34482;BME280;20720;48.886;9.388;2023-09-18T09:41:02;97872.78;;;23.52;100.00
34482;BME280;20720;48.886;9.388;2023-09-18T09:43:31;97873.53;;;23.85;100.00
34482;BME280;20720;48.886;9.388;2023-09-18T09:46:00;97873.78;;;23.70;100.00
34482;BME280;20720;48.886;9.388;2023-09-18T09:48:27;97869.03;;;23.34;100.00
34482;BME280;20720;48.886;9.388;2023-09-18T09:51:00;97853.44;;;22.99;100.00
34482;BME280;20720;48.886;9.388;2023-09-18T09:53:45;97857.06;;;23.08;100.00
34482;BME280;20720;48.886;9.388;2023-09-18T09:56:14;97843.38;;;23.61;100.00
34482;BME280;20720;48.886;9.388;2023-09-18T09:58:40;97848.88;;;23.83;100.00
34482;BME280;20720;48.886;9.388;2023-09-18T10:01:11;97845.50;;;23.26;100.00
34482;BME280;20720;48.886;9.388;2023-09-18T10:03:43;97841.50;;;22.92;100.00
34482;BME280;20720;48.886;9.388;2023-09-18T10:06:09;97842.41;;;23.70;100.00
34482;BME280;20720;48.886;9.388;2023-09-18T10:08:38;97838.25;;;23.91;100.00
34482;BME280;20720;48.886;9.388;2023-09-18T10:11:08;97845.25;;;23.60;100.00
34482;BME280;20720;48.886;9.388;2023-09-18T10:16:01;97865.25;;;24.27;100.00
34482;BME280;20720;48.886;9.388;2023-09-18T10:21:10;97868.94;;;23.72;100.00
34482;BME280;20720;48.886;9.388;2023-09-18T10:24:04;97855.16;;;22.90;100.00
34482;BME280;20720;48.886;9.388;2023-09-18T10:26:29;97849.94;;;23.36;100.00
34482;BME280;20720;48.886;9.388;2023-09-18T10:28:56;97865.28;;;22.56;100.00
34482;BME280;20720;48.886;9.388;2023-09-18T10:31:28;97856.25;;;23.08;100.00
34482;BME280;20720;48.886;9.388;2023-09-18T10:33:58;97876.13;;;23.07;100.00
34482;BME280;20720;48.886;9.388;2023-09-18T10:36:25;97895.44;;;23.22;100.00
34482;BME280;20720;48.886;9.388;2023-09-18T10:38:50;97917.91;;;23.26;100.00
34482;BME280;20720;48.886;9.388;2023-09-18T10:41:19;97901.50;;;22.72;100.00
34482;BME280;20720;48.886;9.388;2023-09-18T10:43:45;97916.06;;;22.14;100.00
34482;BME280;20720;48.886;9.388;2023-09-18T10:46:12;97895.84;;;22.03;100.00
34482;BME280;20720;48.886;9.388;2023-09-18T10:48:41;97890.66;;;21.88;100.00
34482;BME280;20720;48.886;9.388;2023-09-18T10:51:06;97901.63;;;22.38;100.00
34482;BME280;20720;48.886;9.388;2023-09-18T10:53:32;97892.50;;;22.16;100.00
34482;BME280;20720;48.886;9.388;2023-09-18T10:55:57;97896.53;;;22.13;100.00
34482;BME280;20720;48.886;9.388;2023-09-18T10:58:24;97894.56;;;21.67;100.00
34482;BME280;20720;48.886;9.388;2023-09-18T11:00:50;97885.91;;;21.75;100.00
34482;BME280;20720;48.886;9.388;2023-09-18T11:03:17;97883.94;;;21.57;100.00
34482;BME280;20720;48.886;9.388;2023-09-18T11:05:45;97862.88;;;21.84;100.00
34482;BME280;20720;48.886;9.388;2023-09-18T11:11:21;97841.81;;;22.01;100.00
34482;BME280;20720;48.886;9.388;2023-09-18T11:13:52;97839.06;;;21.77;100.00
34482;BME280;20720;48.886;9.388;2023-09-18T11:21:25;97838.28;;;21.77;100.00
34482;BME280;20720;48.886;9.388;2023-09-18T11:24:01;97839.41;;;22.23;100.00
34482;BME280;20720;48.886;9.388;2023-09-18T11:26:42;97844.41;;;22.29;100.00
34482;BME280;20720;48.886;9.388;2023-09-18T11:29:14;97846.47;;;21.90;100.00
34482;BME280;20720;48.886;9.388;2023-09-18T11:34:30;97852.00;;;22.22;100.00
34482;BME280;20720;48.886;9.388;2023-09-18T11:37:22;97870.22;;;21.97;100.00
34482;BME280;20720;48.886;9.388;2023-09-18T11:39:47;97890.03;;;22.43;100.00
34482;BME280;20720;48.886;9.388;2023-09-18T11:42:18;97886.25;;;22.25;100.00
34482;BME280;20720;48.886;9.388;2023-09-18T11:44:45;97886.22;;;22.49;100.00
34482;BME280;20720;48.886;9.388;2023-09-18T11:47:18;97886.00;;;22.22;100.00
34482;BME280;20720;48.886;9.388;2023-09-18T11:52:19;97844.44;;;22.06;100.00
34482;BME280;20720;48.886;9.388;2023-09-18T11:54:45;97838.97;;;22.16;100.00
34482;BME280;20720;48.886;9.388;2023-09-18T11:57:12;97828.34;;;22.53;100.00
34482;BME280;20720;48.886;9.388;2023-09-18T11:59:41;97853.22;;;22.35;100.00
34482;BME280;20720;48.886;9.388;2023-09-18T12:02:12;97874.63;;;22.35;100.00
34482;BME280;20720;48.886;9.388;2023-09-18T12:04:45;97882.59;;;22.64;100.00
34482;BME280;20720;48.886;9.388;2023-09-18T12:07:12;97867.09;;;22.61;100.00
34482;BME280;20720;48.886;9.388;2023-09-18T12:09:37;97885.53;;;23.23;100.00
34482;BME280;20720;48.886;9.388;2023-09-18T12:12:05;97881.41;;;23.30;100.00
34482;BME280;20720;48.886;9.388;2023-09-18T12:14:32;97891.91;;;23.78;100.00
34482;BME280;20720;48.886;9.388;2023-09-18T12:16:59;97897.53;;;23.63;100.00
34482;BME280;20720;48.886;9.388;2023-09-18T12:19:25;97900.22;;;23.63;100.00
34482;BME280;20720;48.886;9.388;2023-09-18T12:21:50;97915.69;;;24.44;100.00
34482;BME280;20720;48.886;9.388;2023-09-18T12:24:25;97915.88;;;24.47;100.00
34482;BME280;20720;48.886;9.388;2023-09-18T12:26:52;97924.31;;;23.81;100.00
34482;BME280;20720;48.886;9.388;2023-09-18T12:29:18;97929.63;;;23.68;100.00
34482;BME280;20720;48.886;9.388;2023-09-18T12:31:44;97923.88;;;23.23;100.00
34482;BME280;20720;48.886;9.388;2023-09-18T12:34:18;97898.72;;;23.38;100.00
34482;BME280;20720;48.886;9.388;2023-09-18T12:36:45;97868.66;;;24.33;100.00
34482;BME280;20720;48.886;9.388;2023-09-18T12:39:14;97891.88;;;23.64;100.00
34482;BME280;20720;48.886;9.388;2023-09-18T12:41:41;97896.81;;;23.57;100.00
34482;BME280;20720;48.886;9.388;2023-09-18T12:44:08;97909.03;;;23.82;100.00
34482;BME280;20720;48.886;9.388;2023-09-18T12:46:34;97896.66;;;23.67;100.00
34482;BME280;20720;48.886;9.388;2023-09-18T12:49:14;97895.63;;;23.95;100.00
34482;BME280;20720;48.886;9.388;2023-09-18T12:51:40;97890.81;;;24.65;100.00
34482;BME280;20720;48.886;9.388;2023-09-18T12:54:05;97893.84;;;25.49;100.00
34482;BME280;20720;48.886;9.388;2023-09-18T12:56:31;97878.31;;;25.68;100.00
34482;BME280;20720;48.886;9.388;2023-09-18T12:58:58;97892.06;;;26.58;100.00
34482;BME280;20720;48.886;9.388;2023-09-18T13:01:24;97910.38;;;26.78;99.63
34482;BME280;20720;48.886;9.388;2023-09-18T13:03:49;97916.94;;;26.55;100.00
34482;BME280;20720;48.886;9.388;2023-09-18T13:06:18;97922.34;;;25.94;98.40
34482;BME280;20720;48.886;9.388;2023-09-18T13:08:45;97912.44;;;25.81;99.11